sensor_id;sensor_type;location;lat;lon;timestamp;P1;durP1;ratioP1;P2;durP2;ratioP2
49758;SDS011;70329;45.524;10.194;2023-06-24T00:01:23;11.18;;;6.28;;
49758;SDS011;70329;45.524;10.194;2023-06-24T00:03:48;9.82;;;5.20;;
49758;SDS011;70329;45.524;10.194;2023-06-24T00:06:18;8.70;;;5.22;;
49758;SDS011;70329;45.524;10.194;2023-06-24T00:08:47;8.65;;;5.18;;
49758;SDS011;70329;45.524;10.194;2023-06-24T00:11:13;9.27;;;5.30;;
49758;SDS011;70329;45.524;10.194;2023-06-24T00:13:40;7.32;;;4.78;;
49758;SDS011;70329;45.524;10.194;2023-06-24T00:16:06;8.30;;;5.18;;
49758;SDS011;70329;45.524;10.194;2023-06-24T00:18:32;8.32;;;5.05;;
49758;SDS011;70329;45.524;10.194;2023-06-24T00:20:58;9.60;;;5.43;;
49758;SDS011;70329;45.524;10.194;2023-06-24T00:25:52;8.60;;;4.75;;
49758;SDS011;70329;45.524;10.194;2023-06-24T00:28:19;8.38;;;4.80;;
49758;SDS011;70329;45.524;10.194;2023-06-24T00:33:11;9.52;;;5.05;;
49758;SDS011;70329;45.524;10.194;2023-06-24T00:35:38;9.05;;;5.20;;
49758;SDS011;70329;45.524;10.194;2023-06-24T00:40:29;7.72;;;4.60;;
49758;SDS011;70329;45.524;10.194;2023-06-24T00:45:20;8.43;;;4.75;;
49758;SDS011;70329;45.524;10.194;2023-06-24T00:47:47;7.43;;;4.72;;
49758;SDS011;70329;45.524;10.194;2023-06-24T00:52:38;8.90;;;4.88;;
49758;SDS011;70329;45.524;10.194;2023-06-24T00:55:07;7.03;;;4.63;;
49758;SDS011;70329;45.524;10.194;2023-06-24T00:57:34;8.32;;;4.90;;
49758;SDS011;70329;45.524;10.194;2023-06-24T01:00:02;9.13;;;5.57;;
49758;SDS011;70329;45.524;10.194;2023-06-24T01:02:33;9.40;;;5.35;;
49758;SDS011;70329;45.524;10.194;2023-06-24T01:05:02;8.40;;;5.43;;
49758;SDS011;70329;45.524;10.194;2023-06-24T01:07:32;10.52;;;5.60;;
49758;SDS011;70329;45.524;10.194;2023-06-24T01:10:01;9.73;;;5.10;;
49758;SDS011;70329;45.524;10.194;2023-06-24T01:12:27;9.85;;;5.72;;
49758;SDS011;70329;45.524;10.194;2023-06-24T01:17:24;9.77;;;5.27;;
49758;SDS011;70329;45.524;10.194;2023-06-24T01:36:51;8.88;;;5.45;;
49758;SDS011;70329;45.524;10.194;2023-06-24T01:39:31;9.23;;;5.38;;
49758;SDS011;70329;45.524;10.194;2023-06-24T01:42:03;10.20;;;5.28;;
49758;SDS011;70329;45.524;10.194;2023-06-24T01:44:33;8.13;;;4.88;;
49758;SDS011;70329;45.524;10.194;2023-06-24T01:47:00;8.30;;;4.97;;
49758;SDS011;70329;45.524;10.194;2023-06-24T01:49:28;9.45;;;4.60;;
49758;SDS011;70329;45.524;10.194;2023-06-24T01:51:56;10.25;;;4.75;;
49758;SDS011;70329;45.524;10.194;2023-06-24T01:54:24;10.68;;;5.25;;
49758;SDS011;70329;45.524;10.194;2023-06-24T01:56:51;8.32;;;4.38;;
49758;SDS011;70329;45.524;10.194;2023-06-24T01:59:20;12.40;;;4.85;;
49758;SDS011;70329;45.524;10.194;2023-06-24T02:01:47;7.00;;;4.40;;
49758;SDS011;70329;45.524;10.194;2023-06-24T02:04:16;8.77;;;4.85;;
49758;SDS011;70329;45.524;10.194;2023-06-24T02:06:43;10.68;;;4.75;;
49758;SDS011;70329;45.524;10.194;2023-06-24T02:09:09;7.22;;;4.80;;
49758;SDS011;70329;45.524;10.194;2023-06-24T02:11:36;11.35;;;5.07;;
49758;SDS011;70329;45.524;10.194;2023-06-24T02:14:03;10.57;;;4.75;;
49758;SDS011;70329;45.524;10.194;2023-06-24T02:16:30;8.45;;;4.85;;
49758;SDS011;70329;45.524;10.194;2023-06-24T02:18:58;10.13;;;4.78;;
49758;SDS011;70329;45.524;10.194;2023-06-24T02:21:25;9.90;;;5.30;;
49758;SDS011;70329;45.524;10.194;2023-06-24T02:23:51;8.57;;;4.60;;
49758;SDS011;70329;45.524;10.194;2023-06-24T02:26:18;8.88;;;4.75;;
49758;SDS011;70329;45.524;10.194;2023-06-24T02:28:44;9.00;;;4.78;;
49758;SDS011;70329;45.524;10.194;2023-06-24T02:31:11;7.93;;;4.43;;
49758;SDS011;70329;45.524;10.194;2023-06-24T02:33:37;7.05;;;4.50;;
49758;SDS011;70329;45.524;10.194;2023-06-24T02:36:03;9.77;;;5.13;;
49758;SDS011;70329;45.524;10.194;2023-06-24T02:38:29;8.90;;;5.20;;
49758;SDS011;70329;45.524;10.194;2023-06-24T02:40:54;8.27;;;4.40;;
49758;SDS011;70329;45.524;10.194;2023-06-24T02:43:19;8.15;;;4.80;;
49758;SDS011;70329;45.524;10.194;2023-06-24T02:45:45;10.77;;;4.90;;
49758;SDS011;70329;45.524;10.194;2023-06-24T02:48:12;8.55;;;4.80;;
49758;SDS011;70329;45.524;10.194;2023-06-24T02:53:06;8.27;;;4.75;;
49758;SDS011;70329;45.524;10.194;2023-06-24T02:55:32;8.70;;;5.10;;
49758;SDS011;70329;45.524;10.194;2023-06-24T02:57:59;9.82;;;4.82;;
49758;SDS011;70329;45.524;10.194;2023-06-24T03:00:26;7.10;;;4.30;;
49758;SDS011;70329;45.524;10.194;2023-06-24T03:02:52;8.88;;;4.57;;
49758;SDS011;70329;45.524;10.194;2023-06-24T03:05:18;7.75;;;4.78;;
49758;SDS011;70329;45.524;10.194;2023-06-24T03:07:43;7.82;;;4.53;;
49758;SDS011;70329;45.524;10.194;2023-06-24T03:10:11;8.95;;;4.75;;
49758;SDS011;70329;45.524;10.194;2023-06-24T03:12:36;8.53;;;5.20;;
49758;SDS011;70329;45.524;10.194;2023-06-24T03:15:01;7.40;;;4.60;;
49758;SDS011;70329;45.524;10.194;2023-06-24T03:17:27;8.75;;;5.10;;
49758;SDS011;70329;45.524;10.194;2023-06-24T03:19:53;9.38;;;4.72;;
49758;SDS011;70329;45.524;10.194;2023-06-24T03:22:18;6.80;;;4.50;;
49758;SDS011;70329;45.524;10.194;2023-06-24T03:24:44;8.25;;;4.72;;
49758;SDS011;70329;45.524;10.194;2023-06-24T03:27:10;8.35;;;4.85;;
49758;SDS011;70329;45.524;10.194;2023-06-24T03:29:35;9.60;;;4.97;;
49758;SDS011;70329;45.524;10.194;2023-06-24T03:32:01;8.18;;;4.95;;
49758;SDS011;70329;45.524;10.194;2023-06-24T03:34:26;10.07;;;4.95;;
49758;SDS011;70329;45.524;10.194;2023-06-24T03:36:54;10.02;;;5.10;;
49758;SDS011;70329;45.524;10.194;2023-06-24T03:39:20;7.93;;;4.78;;
49758;SDS011;70329;45.524;10.194;2023-06-24T03:41:46;10.90;;;5.07;;
49758;SDS011;70329;45.524;10.194;2023-06-24T03:44:11;8.63;;;4.95;;
49758;SDS011;70329;45.524;10.194;2023-06-24T03:46:37;8.07;;;4.50;;
49758;SDS011;70329;45.524;10.194;2023-06-24T03:49:02;8.43;;;4.35;;
49758;SDS011;70329;45.524;10.194;2023-06-24T03:51:28;10.57;;;5.00;;
49758;SDS011;70329;45.524;10.194;2023-06-24T03:53:53;7.60;;;4.63;;
49758;SDS011;70329;45.524;10.194;2023-06-24T03:56:19;8.68;;;4.65;;
49758;SDS011;70329;45.524;10.194;2023-06-24T03:58:44;7.93;;;4.90;;
49758;SDS011;70329;45.524;10.194;2023-06-24T04:01:10;8.83;;;5.00;;
49758;SDS011;70329;45.524;10.194;2023-06-24T04:03:35;7.63;;;4.77;;
49758;SDS011;70329;45.524;10.194;2023-06-24T04:06:00;9.25;;;4.75;;
49758;SDS011;70329;45.524;10.194;2023-06-24T04:08:28;7.78;;;4.35;;
49758;SDS011;70329;45.524;10.194;2023-06-24T04:10:58;8.10;;;4.63;;
49758;SDS011;70329;45.524;10.194;2023-06-24T04:13:28;8.63;;;4.80;;
49758;SDS011;70329;45.524;10.194;2023-06-24T04:15:54;7.63;;;4.25;;
49758;SDS011;70329;45.524;10.194;2023-06-24T04:18:19;8.98;;;5.00;;
49758;SDS011;70329;45.524;10.194;2023-06-24T04:20:45;10.15;;;4.70;;
49758;SDS011;70329;45.524;10.194;2023-06-24T04:23:11;8.88;;;5.15;;
49758;SDS011;70329;45.524;10.194;2023-06-24T04:25:39;8.52;;;4.63;;
49758;SDS011;70329;45.524;10.194;2023-06-24T04:30:31;8.18;;;4.43;;
49758;SDS011;70329;45.524;10.194;2023-06-24T04:32:56;8.50;;;4.63;;
49758;SDS011;70329;45.524;10.194;2023-06-24T04:35:22;6.73;;;4.43;;
49758;SDS011;70329;45.524;10.194;2023-06-24T04:37:47;8.35;;;4.80;;
49758;SDS011;70329;45.524;10.194;2023-06-24T04:40:15;7.32;;;4.43;;
49758;SDS011;70329;45.524;10.194;2023-06-24T04:42:42;8.73;;;4.93;;
49758;SDS011;70329;45.524;10.194;2023-06-24T04:45:07;15.90;;;4.73;;
49758;SDS011;70329;45.524;10.194;2023-06-24T04:47:33;8.30;;;4.68;;
49758;SDS011;70329;45.524;10.194;2023-06-24T04:49:58;10.38;;;4.28;;
49758;SDS011;70329;45.524;10.194;2023-06-24T04:52:23;8.23;;;4.93;;
49758;SDS011;70329;45.524;10.194;2023-06-24T04:54:49;9.00;;;4.65;;
49758;SDS011;70329;45.524;10.194;2023-06-24T04:57:30;9.38;;;4.78;;
49758;SDS011;70329;45.524;10.194;2023-06-24T04:59:57;11.38;;;5.10;;
49758;SDS011;70329;45.524;10.194;2023-06-24T05:04:49;11.30;;;4.70;;
49758;SDS011;70329;45.524;10.194;2023-06-24T05:07:15;7.65;;;4.32;;
49758;SDS011;70329;45.524;10.194;2023-06-24T05:09:41;6.78;;;4.30;;
49758;SDS011;70329;45.524;10.194;2023-06-24T05:12:07;7.80;;;4.53;;
49758;SDS011;70329;45.524;10.194;2023-06-24T05:14:34;9.10;;;4.40;;
49758;SDS011;70329;45.524;10.194;2023-06-24T05:17:00;11.70;;;6.05;;
49758;SDS011;70329;45.524;10.194;2023-06-24T05:19:25;8.90;;;4.43;;
49758;SDS011;70329;45.524;10.194;2023-06-24T05:24:16;8.85;;;4.40;;
49758;SDS011;70329;45.524;10.194;2023-06-24T05:26:41;9.63;;;4.78;;
49758;SDS011;70329;45.524;10.194;2023-06-24T05:29:07;13.50;;;4.32;;
49758;SDS011;70329;45.524;10.194;2023-06-24T05:31:32;8.77;;;4.55;;
49758;SDS011;70329;45.524;10.194;2023-06-24T05:33:57;9.35;;;4.00;;
49758;SDS011;70329;45.524;10.194;2023-06-24T05:36:23;9.02;;;4.30;;
49758;SDS011;70329;45.524;10.194;2023-06-24T05:38:48;7.32;;;3.88;;
49758;SDS011;70329;45.524;10.194;2023-06-24T05:41:14;9.05;;;3.97;;
49758;SDS011;70329;45.524;10.194;2023-06-24T05:43:39;7.10;;;4.22;;
49758;SDS011;70329;45.524;10.194;2023-06-24T05:46:05;7.53;;;3.85;;
49758;SDS011;70329;45.524;10.194;2023-06-24T05:48:30;10.68;;;4.40;;
49758;SDS011;70329;45.524;10.194;2023-06-24T05:50:55;4.88;;;3.78;;
49758;SDS011;70329;45.524;10.194;2023-06-24T05:53:21;5.10;;;3.45;;
49758;SDS011;70329;45.524;10.194;2023-06-24T05:55:46;7.75;;;3.70;;
49758;SDS011;70329;45.524;10.194;2023-06-24T05:58:11;11.25;;;7.72;;
49758;SDS011;70329;45.524;10.194;2023-06-24T06:00:37;7.43;;;4.10;;
49758;SDS011;70329;45.524;10.194;2023-06-24T06:03:02;8.70;;;4.30;;
49758;SDS011;70329;45.524;10.194;2023-06-24T06:05:28;6.90;;;4.13;;
49758;SDS011;70329;45.524;10.194;2023-06-24T06:07:53;9.98;;;3.78;;
49758;SDS011;70329;45.524;10.194;2023-06-24T06:10:18;9.52;;;3.92;;
49758;SDS011;70329;45.524;10.194;2023-06-24T06:12:44;5.57;;;3.85;;
49758;SDS011;70329;45.524;10.194;2023-06-24T06:15:10;6.30;;;4.10;;
49758;SDS011;70329;45.524;10.194;2023-06-24T06:17:36;6.82;;;4.30;;
49758;SDS011;70329;45.524;10.194;2023-06-24T06:20:01;8.35;;;4.20;;
49758;SDS011;70329;45.524;10.194;2023-06-24T06:22:27;6.97;;;4.82;;
49758;SDS011;70329;45.524;10.194;2023-06-24T06:24:52;7.80;;;4.20;;
49758;SDS011;70329;45.524;10.194;2023-06-24T06:27:17;7.72;;;3.65;;
49758;SDS011;70329;45.524;10.194;2023-06-24T06:29:43;8.02;;;4.03;;
49758;SDS011;70329;45.524;10.194;2023-06-24T06:32:08;10.70;;;3.60;;
49758;SDS011;70329;45.524;10.194;2023-06-24T06:34:34;6.45;;;3.40;;
49758;SDS011;70329;45.524;10.194;2023-06-24T06:36:59;7.28;;;3.53;;
49758;SDS011;70329;45.524;10.194;2023-06-24T06:39:24;7.25;;;3.65;;
49758;SDS011;70329;45.524;10.194;2023-06-24T06:41:51;5.95;;;4.00;;
49758;SDS011;70329;45.524;10.194;2023-06-24T06:44:16;8.13;;;4.18;;
49758;SDS011;70329;45.524;10.194;2023-06-24T06:46:41;7.47;;;4.00;;
49758;SDS011;70329;45.524;10.194;2023-06-24T06:49:07;8.05;;;3.88;;
49758;SDS011;70329;45.524;10.194;2023-06-24T06:51:32;9.85;;;4.40;;
49758;SDS011;70329;45.524;10.194;2023-06-24T06:53:59;7.63;;;4.03;;
49758;SDS011;70329;45.524;10.194;2023-06-24T06:56:24;11.65;;;4.05;;
49758;SDS011;70329;45.524;10.194;2023-06-24T06:58:51;8.18;;;4.00;;
49758;SDS011;70329;45.524;10.194;2023-06-24T07:01:17;8.88;;;4.10;;
49758;SDS011;70329;45.524;10.194;2023-06-24T07:03:42;7.75;;;4.05;;
49758;SDS011;70329;45.524;10.194;2023-06-24T07:06:08;10.05;;;4.18;;
49758;SDS011;70329;45.524;10.194;2023-06-24T07:08:33;8.95;;;4.45;;
49758;SDS011;70329;45.524;10.194;2023-06-24T07:10:59;7.20;;;4.28;;
49758;SDS011;70329;45.524;10.194;2023-06-24T07:13:25;13.10;;;4.15;;
49758;SDS011;70329;45.524;10.194;2023-06-24T07:15:50;9.98;;;4.03;;
49758;SDS011;70329;45.524;10.194;2023-06-24T07:18:15;10.00;;;4.07;;
49758;SDS011;70329;45.524;10.194;2023-06-24T07:20:41;10.50;;;4.13;;
49758;SDS011;70329;45.524;10.194;2023-06-24T07:23:06;7.68;;;3.63;;
49758;SDS011;70329;45.524;10.194;2023-06-24T07:25:31;11.10;;;4.00;;
49758;SDS011;70329;45.524;10.194;2023-06-24T07:27:57;7.43;;;4.38;;
49758;SDS011;70329;45.524;10.194;2023-06-24T07:30:22;12.48;;;4.38;;
49758;SDS011;70329;45.524;10.194;2023-06-24T07:32:47;10.73;;;3.80;;
49758;SDS011;70329;45.524;10.194;2023-06-24T07:35:13;9.73;;;4.13;;
49758;SDS011;70329;45.524;10.194;2023-06-24T07:37:40;8.43;;;4.10;;
49758;SDS011;70329;45.524;10.194;2023-06-24T07:40:06;8.52;;;3.75;;
49758;SDS011;70329;45.524;10.194;2023-06-24T07:42:34;11.10;;;4.18;;
49758;SDS011;70329;45.524;10.194;2023-06-24T07:44:59;9.45;;;4.15;;
49758;SDS011;70329;45.524;10.194;2023-06-24T07:47:24;8.35;;;3.90;;
49758;SDS011;70329;45.524;10.194;2023-06-24T07:49:50;8.05;;;3.65;;
49758;SDS011;70329;45.524;10.194;2023-06-24T07:52:16;8.75;;;3.53;;
49758;SDS011;70329;45.524;10.194;2023-06-24T07:54:42;10.45;;;3.60;;
49758;SDS011;70329;45.524;10.194;2023-06-24T07:57:07;6.65;;;3.70;;
49758;SDS011;70329;45.524;10.194;2023-06-24T07:59:33;7.90;;;3.35;;
49758;SDS011;70329;45.524;10.194;2023-06-24T08:01:58;5.63;;;2.92;;
49758;SDS011;70329;45.524;10.194;2023-06-24T08:04:23;4.57;;;2.60;;
49758;SDS011;70329;45.524;10.194;2023-06-24T08:06:49;5.70;;;2.60;;
49758;SDS011;70329;45.524;10.194;2023-06-24T08:09:15;9.73;;;2.50;;
49758;SDS011;70329;45.524;10.194;2023-06-24T08:11:41;4.88;;;2.50;;
49758;SDS011;70329;45.524;10.194;2023-06-24T08:14:08;5.50;;;2.30;;
49758;SDS011;70329;45.524;10.194;2023-06-24T08:16:34;7.05;;;1.80;;
49758;SDS011;70329;45.524;10.194;2023-06-24T08:18:59;2.25;;;1.70;;
49758;SDS011;70329;45.524;10.194;2023-06-24T08:21:24;2.15;;;1.10;;
49758;SDS011;70329;45.524;10.194;2023-06-24T08:23:50;2.17;;;1.40;;
49758;SDS011;70329;45.524;10.194;2023-06-24T08:26:16;2.13;;;1.20;;
49758;SDS011;70329;45.524;10.194;2023-06-24T08:28:42;3.78;;;1.30;;
49758;SDS011;70329;45.524;10.194;2023-06-24T08:31:07;3.30;;;1.45;;
49758;SDS011;70329;45.524;10.194;2023-06-24T08:33:33;2.10;;;1.30;;
49758;SDS011;70329;45.524;10.194;2023-06-24T08:35:58;1.63;;;1.33;;
49758;SDS011;70329;45.524;10.194;2023-06-24T08:38:24;1.67;;;1.30;;
49758;SDS011;70329;45.524;10.194;2023-06-24T08:40:49;1.33;;;1.10;;
49758;SDS011;70329;45.524;10.194;2023-06-24T08:43:15;2.25;;;1.10;;
49758;SDS011;70329;45.524;10.194;2023-06-24T08:45:42;2.33;;;1.30;;
49758;SDS011;70329;45.524;10.194;2023-06-24T08:48:09;4.95;;;1.30;;
49758;SDS011;70329;45.524;10.194;2023-06-24T08:50:35;2.17;;;1.27;;
49758;SDS011;70329;45.524;10.194;2023-06-24T08:53:08;1.65;;;1.27;;
49758;SDS011;70329;45.524;10.194;2023-06-24T08:55:39;2.25;;;1.50;;
49758;SDS011;70329;45.524;10.194;2023-06-24T08:58:08;2.15;;;1.15;;
49758;SDS011;70329;45.524;10.194;2023-06-24T09:00:33;3.63;;;1.20;;
49758;SDS011;70329;45.524;10.194;2023-06-24T09:02:59;2.92;;;1.17;;
49758;SDS011;70329;45.524;10.194;2023-06-24T09:05:24;4.68;;;1.30;;
49758;SDS011;70329;45.524;10.194;2023-06-24T09:07:50;2.65;;;1.50;;
49758;SDS011;70329;45.524;10.194;2023-06-24T09:10:37;3.25;;;1.60;;
49758;SDS011;70329;45.524;10.194;2023-06-24T09:13:02;2.63;;;1.50;;
49758;SDS011;70329;45.524;10.194;2023-06-24T09:15:35;2.67;;;1.40;;
49758;SDS011;70329;45.524;10.194;2023-06-24T09:18:01;2.22;;;1.50;;
49758;SDS011;70329;45.524;10.194;2023-06-24T09:20:28;2.25;;;1.30;;
49758;SDS011;70329;45.524;10.194;2023-06-24T09:23:13;2.20;;;1.42;;
49758;SDS011;70329;45.524;10.194;2023-06-24T09:25:38;3.55;;;1.48;;
49758;SDS011;70329;45.524;10.194;2023-06-24T09:28:04;11.20;;;2.75;;
49758;SDS011;70329;45.524;10.194;2023-06-24T09:30:29;2.95;;;1.52;;
49758;SDS011;70329;45.524;10.194;2023-06-24T09:32:55;4.38;;;1.50;;
49758;SDS011;70329;45.524;10.194;2023-06-24T09:35:22;2.55;;;1.83;;
49758;SDS011;70329;45.524;10.194;2023-06-24T09:37:49;3.20;;;1.70;;
49758;SDS011;70329;45.524;10.194;2023-06-24T09:40:15;3.50;;;1.85;;
49758;SDS011;70329;45.524;10.194;2023-06-24T09:42:48;2.55;;;1.60;;
49758;SDS011;70329;45.524;10.194;2023-06-24T09:45:24;2.00;;;1.48;;
49758;SDS011;70329;45.524;10.194;2023-06-24T09:47:53;3.05;;;1.85;;
49758;SDS011;70329;45.524;10.194;2023-06-24T09:50:19;4.07;;;2.20;;
49758;SDS011;70329;45.524;10.194;2023-06-24T09:52:45;2.88;;;2.28;;
49758;SDS011;70329;45.524;10.194;2023-06-24T09:55:13;3.65;;;1.70;;
49758;SDS011;70329;45.524;10.194;2023-06-24T09:57:40;1.35;;;1.25;;
49758;SDS011;70329;45.524;10.194;2023-06-24T10:00:09;2.35;;;1.70;;
49758;SDS011;70329;45.524;10.194;2023-06-24T10:02:35;2.63;;;1.85;;
49758;SDS011;70329;45.524;10.194;2023-06-24T10:05:01;3.58;;;2.00;;
49758;SDS011;70329;45.524;10.194;2023-06-24T10:07:28;4.60;;;2.10;;
49758;SDS011;70329;45.524;10.194;2023-06-24T10:09:54;2.70;;;1.90;;
49758;SDS011;70329;45.524;10.194;2023-06-24T10:12:20;1.95;;;1.73;;
49758;SDS011;70329;45.524;10.194;2023-06-24T10:14:45;2.08;;;1.58;;
49758;SDS011;70329;45.524;10.194;2023-06-24T10:17:11;3.20;;;2.22;;
49758;SDS011;70329;45.524;10.194;2023-06-24T10:19:38;6.25;;;2.20;;
49758;SDS011;70329;45.524;10.194;2023-06-24T10:22:08;2.78;;;2.00;;
49758;SDS011;70329;45.524;10.194;2023-06-24T10:24:36;4.28;;;2.30;;
49758;SDS011;70329;45.524;10.194;2023-06-24T10:27:08;3.78;;;2.20;;
49758;SDS011;70329;45.524;10.194;2023-06-24T10:29:34;3.13;;;2.40;;
49758;SDS011;70329;45.524;10.194;2023-06-24T10:32:10;6.78;;;2.40;;
49758;SDS011;70329;45.524;10.194;2023-06-24T10:34:39;4.55;;;2.67;;
49758;SDS011;70329;45.524;10.194;2023-06-24T10:47:36;4.28;;;2.38;;
49758;SDS011;70329;45.524;10.194;2023-06-24T10:50:03;6.53;;;2.75;;
49758;SDS011;70329;45.524;10.194;2023-06-24T10:52:29;6.95;;;2.30;;
49758;SDS011;70329;45.524;10.194;2023-06-24T10:54:56;4.95;;;2.70;;
49758;SDS011;70329;45.524;10.194;2023-06-24T10:57:26;5.00;;;2.28;;
49758;SDS011;70329;45.524;10.194;2023-06-24T10:59:52;7.15;;;2.50;;
49758;SDS011;70329;45.524;10.194;2023-06-24T11:02:19;3.53;;;1.98;;
49758;SDS011;70329;45.524;10.194;2023-06-24T11:04:47;6.20;;;2.42;;
49758;SDS011;70329;45.524;10.194;2023-06-24T11:07:12;2.67;;;2.08;;
49758;SDS011;70329;45.524;10.194;2023-06-24T11:09:40;3.50;;;2.30;;
49758;SDS011;70329;45.524;10.194;2023-06-24T11:12:08;6.10;;;3.00;;
49758;SDS011;70329;45.524;10.194;2023-06-24T11:14:34;8.82;;;3.10;;
49758;SDS011;70329;45.524;10.194;2023-06-24T11:17:01;4.85;;;2.80;;
49758;SDS011;70329;45.524;10.194;2023-06-24T11:19:27;6.15;;;2.75;;
49758;SDS011;70329;45.524;10.194;2023-06-24T11:21:52;4.50;;;2.75;;
49758;SDS011;70329;45.524;10.194;2023-06-24T11:24:18;6.60;;;2.70;;
49758;SDS011;70329;45.524;10.194;2023-06-24T11:26:43;4.10;;;2.38;;
49758;SDS011;70329;45.524;10.194;2023-06-24T11:29:10;6.82;;;2.83;;
49758;SDS011;70329;45.524;10.194;2023-06-24T11:31:36;8.07;;;3.05;;
49758;SDS011;70329;45.524;10.194;2023-06-24T11:34:02;3.72;;;2.53;;
49758;SDS011;70329;45.524;10.194;2023-06-24T11:36:28;5.97;;;2.75;;
49758;SDS011;70329;45.524;10.194;2023-06-24T11:38:54;4.40;;;3.03;;
49758;SDS011;70329;45.524;10.194;2023-06-24T11:41:20;3.58;;;2.80;;
49758;SDS011;70329;45.524;10.194;2023-06-24T11:43:46;4.70;;;2.80;;
49758;SDS011;70329;45.524;10.194;2023-06-24T11:46:28;4.07;;;2.78;;
49758;SDS011;70329;45.524;10.194;2023-06-24T11:49:07;7.65;;;2.60;;
49758;SDS011;70329;45.524;10.194;2023-06-24T11:51:34;3.70;;;2.40;;
49758;SDS011;70329;45.524;10.194;2023-06-24T11:54:02;4.82;;;2.63;;
49758;SDS011;70329;45.524;10.194;2023-06-24T11:56:38;5.57;;;3.30;;
49758;SDS011;70329;45.524;10.194;2023-06-24T11:59:05;3.60;;;2.58;;
49758;SDS011;70329;45.524;10.194;2023-06-24T12:01:35;4.03;;;2.75;;
49758;SDS011;70329;45.524;10.194;2023-06-24T12:04:10;4.38;;;2.20;;
49758;SDS011;70329;45.524;10.194;2023-06-24T12:06:42;6.25;;;3.22;;
49758;SDS011;70329;45.524;10.194;2023-06-24T12:09:08;5.35;;;3.65;;
49758;SDS011;70329;45.524;10.194;2023-06-24T12:11:34;5.47;;;2.80;;
49758;SDS011;70329;45.524;10.194;2023-06-24T12:14:00;4.53;;;2.45;;
49758;SDS011;70329;45.524;10.194;2023-06-24T12:16:26;5.90;;;2.70;;
49758;SDS011;70329;45.524;10.194;2023-06-24T12:18:52;4.57;;;3.30;;
49758;SDS011;70329;45.524;10.194;2023-06-24T12:21:18;12.75;;;5.95;;
49758;SDS011;70329;45.524;10.194;2023-06-24T12:23:43;7.10;;;3.28;;
49758;SDS011;70329;45.524;10.194;2023-06-24T12:26:09;4.03;;;2.70;;
49758;SDS011;70329;45.524;10.194;2023-06-24T12:28:35;4.10;;;2.75;;
49758;SDS011;70329;45.524;10.194;2023-06-24T12:31:00;5.47;;;2.65;;
49758;SDS011;70329;45.524;10.194;2023-06-24T12:33:25;3.75;;;2.53;;
49758;SDS011;70329;45.524;10.194;2023-06-24T12:35:51;7.50;;;2.40;;
49758;SDS011;70329;45.524;10.194;2023-06-24T12:38:16;4.18;;;2.22;;
49758;SDS011;70329;45.524;10.194;2023-06-24T12:40:42;4.50;;;2.30;;
49758;SDS011;70329;45.524;10.194;2023-06-24T12:43:08;2.83;;;2.35;;
49758;SDS011;70329;45.524;10.194;2023-06-24T12:45:33;6.07;;;2.53;;
49758;SDS011;70329;45.524;10.194;2023-06-24T12:47:59;3.00;;;2.40;;
49758;SDS011;70329;45.524;10.194;2023-06-24T12:50:24;4.72;;;2.60;;
49758;SDS011;70329;45.524;10.194;2023-06-24T12:52:50;6.90;;;3.40;;
49758;SDS011;70329;45.524;10.194;2023-06-24T12:55:15;7.72;;;3.10;;
49758;SDS011;70329;45.524;10.194;2023-06-24T12:57:41;4.15;;;2.47;;
49758;SDS011;70329;45.524;10.194;2023-06-24T13:00:06;2.95;;;2.05;;
49758;SDS011;70329;45.524;10.194;2023-06-24T13:02:33;9.15;;;3.10;;
49758;SDS011;70329;45.524;10.194;2023-06-24T13:04:58;5.63;;;2.28;;
49758;SDS011;70329;45.524;10.194;2023-06-24T13:07:24;4.32;;;2.38;;
49758;SDS011;70329;45.524;10.194;2023-06-24T13:09:49;5.07;;;2.40;;
49758;SDS011;70329;45.524;10.194;2023-06-24T13:12:15;6.25;;;2.80;;
49758;SDS011;70329;45.524;10.194;2023-06-24T13:14:40;6.53;;;2.92;;
49758;SDS011;70329;45.524;10.194;2023-06-24T13:17:05;3.25;;;2.53;;
49758;SDS011;70329;45.524;10.194;2023-06-24T13:19:31;6.00;;;2.47;;
49758;SDS011;70329;45.524;10.194;2023-06-24T13:21:57;4.20;;;2.63;;
49758;SDS011;70329;45.524;10.194;2023-06-24T13:24:23;3.28;;;2.58;;
49758;SDS011;70329;45.524;10.194;2023-06-24T13:26:50;4.85;;;2.90;;
49758;SDS011;70329;45.524;10.194;2023-06-24T13:29:15;6.13;;;2.90;;
49758;SDS011;70329;45.524;10.194;2023-06-24T13:31:41;3.88;;;2.65;;
49758;SDS011;70329;45.524;10.194;2023-06-24T13:34:06;6.80;;;3.08;;
49758;SDS011;70329;45.524;10.194;2023-06-24T13:36:35;4.75;;;3.15;;
49758;SDS011;70329;45.524;10.194;2023-06-24T13:39:05;3.42;;;2.50;;
49758;SDS011;70329;45.524;10.194;2023-06-24T13:41:32;7.53;;;2.70;;
49758;SDS011;70329;45.524;10.194;2023-06-24T13:43:59;4.18;;;2.75;;
49758;SDS011;70329;45.524;10.194;2023-06-24T13:46:28;3.97;;;2.83;;
49758;SDS011;70329;45.524;10.194;2023-06-24T13:48:54;5.28;;;2.45;;
49758;SDS011;70329;45.524;10.194;2023-06-24T13:51:21;4.70;;;2.63;;
49758;SDS011;70329;45.524;10.194;2023-06-24T13:53:50;5.15;;;3.05;;
49758;SDS011;70329;45.524;10.194;2023-06-24T13:56:18;5.78;;;2.35;;
49758;SDS011;70329;45.524;10.194;2023-06-24T13:58:44;4.20;;;2.55;;
49758;SDS011;70329;45.524;10.194;2023-06-24T14:01:10;4.20;;;2.80;;
49758;SDS011;70329;45.524;10.194;2023-06-24T14:03:36;4.43;;;2.50;;
49758;SDS011;70329;45.524;10.194;2023-06-24T14:06:02;3.65;;;2.45;;
49758;SDS011;70329;45.524;10.194;2023-06-24T14:08:28;3.90;;;2.58;;
49758;SDS011;70329;45.524;10.194;2023-06-24T14:10:54;4.10;;;2.60;;
49758;SDS011;70329;45.524;10.194;2023-06-24T14:13:20;6.57;;;2.30;;
49758;SDS011;70329;45.524;10.194;2023-06-24T14:15:46;6.13;;;2.67;;
49758;SDS011;70329;45.524;10.194;2023-06-24T14:18:11;4.38;;;2.58;;
49758;SDS011;70329;45.524;10.194;2023-06-24T14:20:36;6.03;;;2.60;;
49758;SDS011;70329;45.524;10.194;2023-06-24T14:23:02;8.25;;;2.90;;
49758;SDS011;70329;45.524;10.194;2023-06-24T14:25:29;5.47;;;2.65;;
49758;SDS011;70329;45.524;10.194;2023-06-24T14:27:54;6.22;;;4.05;;
49758;SDS011;70329;45.524;10.194;2023-06-24T14:30:19;7.07;;;3.03;;
49758;SDS011;70329;45.524;10.194;2023-06-24T14:32:45;8.85;;;3.13;;
49758;SDS011;70329;45.524;10.194;2023-06-24T14:35:10;6.30;;;2.78;;
49758;SDS011;70329;45.524;10.194;2023-06-24T14:37:35;4.65;;;2.58;;
49758;SDS011;70329;45.524;10.194;2023-06-24T14:40:01;3.78;;;3.00;;
49758;SDS011;70329;45.524;10.194;2023-06-24T14:42:26;6.72;;;2.83;;
49758;SDS011;70329;45.524;10.194;2023-06-24T14:44:52;7.50;;;3.50;;
49758;SDS011;70329;45.524;10.194;2023-06-24T14:47:17;4.13;;;2.90;;
49758;SDS011;70329;45.524;10.194;2023-06-24T14:49:42;3.20;;;2.35;;
49758;SDS011;70329;45.524;10.194;2023-06-24T14:52:08;6.30;;;2.70;;
49758;SDS011;70329;45.524;10.194;2023-06-24T14:54:33;4.65;;;2.70;;
49758;SDS011;70329;45.524;10.194;2023-06-24T14:56:58;5.53;;;3.55;;
49758;SDS011;70329;45.524;10.194;2023-06-24T14:59:24;5.05;;;3.20;;
49758;SDS011;70329;45.524;10.194;2023-06-24T15:01:49;4.07;;;2.47;;
49758;SDS011;70329;45.524;10.194;2023-06-24T15:04:14;6.13;;;3.15;;
49758;SDS011;70329;45.524;10.194;2023-06-24T15:06:40;5.82;;;2.80;;
49758;SDS011;70329;45.524;10.194;2023-06-24T15:09:05;7.53;;;2.83;;
49758;SDS011;70329;45.524;10.194;2023-06-24T15:11:30;3.47;;;2.35;;
49758;SDS011;70329;45.524;10.194;2023-06-24T16:05:10;6.93;;;3.72;;
49758;SDS011;70329;45.524;10.194;2023-06-24T16:07:37;8.02;;;2.80;;
49758;SDS011;70329;45.524;10.194;2023-06-24T16:10:04;6.53;;;2.72;;
49758;SDS011;70329;45.524;10.194;2023-06-24T16:12:31;7.82;;;3.60;;